createdAt,value
2022-09-26T00:01:41.200Z,10.27
2022-09-26T00:04:16.227Z,10.26
2022-09-26T00:06:55.317Z,10.26
2022-09-26T00:09:23.847Z,10.27
2022-09-26T00:11:51.078Z,10.23
2022-09-26T00:14:24.152Z,10.20
2022-09-26T00:16:51.163Z,10.21
2022-09-26T00:19:18.464Z,10.20
2022-09-26T00:21:51.685Z,10.18
2022-09-26T00:24:18.225Z,10.15
2022-09-26T00:26:44.893Z,10.16
2022-09-26T00:29:14.542Z,10.14
2022-09-26T00:31:44.308Z,10.15
2022-09-26T00:34:13.457Z,10.15
2022-09-26T00:36:39.955Z,10.15
2022-09-26T00:39:08.887Z,10.17
2022-09-26T00:41:36.977Z,10.13
2022-09-26T00:44:25.648Z,10.11
2022-09-26T00:46:52.552Z,10.10
2022-09-26T00:49:31.446Z,10.11
2022-09-26T00:52:03.719Z,10.11
2022-09-26T00:54:31.708Z,10.11
2022-09-26T00:57:07.783Z,10.11
2022-09-26T00:59:41.887Z,10.09
2022-09-26T01:02:11.182Z,10.08
2022-09-26T01:04:41.492Z,10.08
2022-09-26T01:07:14.405Z,10.09
2022-09-26T01:09:40.892Z,10.08
2022-09-26T01:12:09.156Z,10.08
2022-09-26T01:14:41.463Z,10.09
2022-09-26T01:17:09.256Z,10.07
2022-09-26T01:19:54.849Z,10.07
2022-09-26T01:22:46.300Z,10.07
2022-09-26T01:25:54.479Z,10.08
2022-09-26T01:28:46.094Z,10.09
2022-09-26T01:31:25.075Z,10.09
2022-09-26T01:34:03.145Z,10.10
2022-09-26T01:36:58.955Z,10.11
2022-09-26T01:39:34.783Z,10.09
2022-09-26T01:42:10.569Z,10.11
2022-09-26T01:44:48.110Z,10.12
2022-09-26T01:47:23.758Z,10.12
2022-09-26T01:50:22.385Z,10.12
2022-09-26T01:53:01.539Z,10.12
2022-09-26T01:55:31.825Z,10.11
2022-09-26T01:58:29.129Z,10.09
2022-09-26T02:00:59.406Z,10.09
2022-09-26T02:03:32.285Z,10.09
2022-09-26T02:06:31.219Z,10.10
2022-09-26T02:09:07.411Z,10.08
2022-09-26T02:11:35.881Z,10.05
2022-09-26T02:14:15.767Z,10.07
2022-09-26T02:16:47.813Z,10.07
2022-09-26T02:19:26.279Z,10.07
2022-09-26T02:21:53.003Z,10.07
2022-09-26T02:24:19.780Z,10.05
2022-09-26T02:26:46.716Z,10.05
2022-09-26T02:29:14.607Z,10.03
2022-09-26T02:31:51.510Z,10.01
2022-09-26T02:34:18.370Z,10.00
2022-09-26T02:36:44.901Z,10.02
2022-09-26T02:39:19.521Z,10.03
2022-09-26T02:42:07.641Z,10.05
2022-09-26T02:45:22.104Z,10.08
2022-09-26T02:47:48.508Z,10.09
2022-09-26T02:50:25.651Z,10.10
2022-09-26T02:53:25.721Z,10.12
2022-09-26T02:56:23.665Z,10.14
2022-09-26T02:59:16.871Z,10.15
2022-09-26T03:02:25.588Z,10.15
2022-09-26T03:04:56.739Z,10.17
2022-09-26T03:07:36.521Z,10.17
2022-09-26T03:10:07.390Z,10.15
2022-09-26T03:12:34.831Z,10.14
2022-09-26T03:15:04.276Z,10.13
2022-09-26T03:17:33.488Z,10.13
2022-09-26T03:20:08.467Z,10.12
2022-09-26T03:22:35.649Z,10.13
2022-09-26T03:25:05.389Z,10.12
2022-09-26T03:27:34.139Z,10.10
2022-09-26T03:30:00.738Z,10.10
2022-09-26T03:32:28.452Z,10.12
2022-09-26T03:34:54.953Z,10.09
2022-09-26T03:37:21.567Z,10.10
2022-09-26T03:39:52.717Z,10.09
2022-09-26T03:42:19.252Z,10.11
2022-09-26T03:44:45.722Z,10.11
2022-09-26T03:47:19.499Z,10.11
2022-09-26T03:49:46.014Z,10.13
2022-09-26T03:52:12.961Z,10.13
2022-09-26T03:54:41.196Z,10.14
2022-09-26T03:57:08.034Z,10.15
2022-09-26T03:59:34.511Z,10.17
2022-09-26T04:02:01.145Z,10.14
2022-09-26T04:04:27.801Z,10.13
2022-09-26T04:06:54.316Z,10.13
2022-09-26T04:09:25.249Z,10.11
2022-09-26T04:11:53.191Z,10.10
2022-09-26T04:14:19.947Z,10.08
2022-09-26T04:16:48.952Z,10.06
2022-09-26T04:19:15.788Z,10.04
2022-09-26T04:21:42.915Z,10.01
2022-09-26T04:24:16.963Z,9.99
2022-09-26T04:26:45.414Z,9.97
2022-09-26T04:29:13.391Z,9.94
2022-09-26T04:31:42.304Z,9.94
2022-09-26T04:34:11.306Z,9.91
2022-09-26T04:36:38.098Z,9.88
2022-09-26T04:39:06.928Z,9.85
2022-09-26T04:41:33.523Z,9.81
2022-09-26T04:44:01.211Z,9.78
2022-09-26T04:46:31.205Z,9.74
2022-09-26T04:48:59.720Z,9.71
2022-09-26T04:51:28.805Z,9.68
2022-09-26T04:53:55.953Z,9.63
2022-09-26T04:56:24.361Z,9.58
2022-09-26T04:58:51.634Z,9.56
2022-09-26T05:01:20.356Z,9.55
2022-09-26T05:03:47.036Z,9.53
2022-09-26T05:06:15.321Z,9.52
2022-09-26T05:08:48.175Z,9.52
2022-09-26T05:11:17.870Z,9.53
2022-09-26T05:13:45.065Z,9.51
2022-09-26T05:16:16.536Z,9.48
2022-09-26T05:18:43.343Z,9.45
2022-09-26T05:21:10.084Z,9.44
2022-09-26T05:23:55.814Z,9.40
2022-09-26T05:26:24.554Z,9.36
2022-09-26T05:29:08.832Z,9.35
2022-09-26T05:31:37.926Z,9.33
2022-09-26T05:34:09.156Z,9.36
2022-09-26T05:36:42.825Z,9.36
2022-09-26T05:39:32.957Z,9.39
2022-09-26T05:41:59.689Z,9.41
2022-09-26T05:44:27.431Z,9.42
2022-09-26T05:46:59.537Z,9.44
2022-09-26T05:49:26.062Z,9.47
2022-09-26T05:51:53.791Z,9.51
2022-09-26T05:54:20.368Z,9.51
2022-09-26T05:56:46.824Z,9.55
2022-09-26T05:59:16.717Z,9.55
2022-09-26T06:01:45.519Z,9.59
2022-09-26T06:04:12.210Z,9.58
2022-09-26T06:06:38.751Z,9.62
2022-09-26T06:09:13.799Z,9.65
2022-09-26T06:11:40.272Z,9.64
2022-09-26T06:14:07.193Z,9.64
2022-09-26T06:16:33.930Z,9.66
2022-09-26T06:19:02.639Z,9.71
2022-09-26T06:21:29.856Z,9.77
2022-09-26T06:23:56.521Z,9.78
2022-09-26T06:26:25.253Z,9.85
2022-09-26T06:29:01.842Z,9.91
2022-09-26T06:31:30.711Z,9.96
2022-09-26T06:33:58.513Z,10.04
2022-09-26T06:36:27.352Z,10.08
2022-09-26T06:38:55.438Z,10.12
2022-09-26T06:41:26.582Z,10.15
2022-09-26T06:43:53.419Z,10.18
2022-09-26T06:46:21.085Z,10.22
2022-09-26T06:48:47.638Z,10.32
2022-09-26T06:51:16.542Z,10.39
2022-09-26T06:53:45.792Z,10.37
2022-09-26T06:56:13.368Z,10.38
2022-09-26T06:58:41.627Z,10.43
2022-09-26T07:01:08.658Z,10.49
2022-09-26T07:03:36.021Z,10.58
2022-09-26T07:06:09.368Z,10.62
2022-09-26T07:09:00.995Z,10.94
2022-09-26T07:11:42.174Z,11.25
2022-09-26T07:14:10.924Z,11.42
2022-09-26T07:16:45.232Z,11.63
2022-09-26T07:19:12.546Z,11.54
2022-09-26T07:21:39.146Z,11.60
2022-09-26T07:24:06.042Z,12.00
2022-09-26T07:26:34.992Z,12.18
2022-09-26T07:29:01.854Z,12.72
2022-09-26T07:31:30.217Z,12.86
2022-09-26T07:33:56.746Z,13.77
2022-09-26T07:36:25.007Z,15.48
2022-09-26T07:38:51.631Z,16.60
2022-09-26T07:41:18.109Z,17.43
2022-09-26T07:46:49.850Z,17.31
2022-09-26T07:49:34.803Z,17.51
2022-09-26T07:52:03.280Z,17.39
2022-09-26T07:54:29.807Z,16.91
2022-09-26T07:56:56.412Z,16.10
2022-09-26T07:59:23.193Z,15.44
2022-09-26T08:01:52.343Z,14.99
2022-09-26T08:04:18.892Z,14.77
2022-09-26T08:06:45.995Z,16.02
2022-09-26T08:09:13.196Z,16.83
2022-09-26T08:11:40.332Z,16.20
2022-09-26T08:14:14.790Z,15.68
2022-09-26T08:16:41.773Z,15.20
2022-09-26T08:19:09.268Z,15.12
2022-09-26T08:21:46.234Z,14.81
2022-09-26T08:24:16.564Z,14.58
2022-09-26T08:26:44.599Z,14.46
2022-09-26T08:29:14.129Z,14.19
2022-09-26T08:31:40.849Z,14.05
2022-09-26T08:34:08.176Z,13.96
2022-09-26T08:36:39.501Z,13.85
2022-09-26T08:39:06.010Z,13.86
2022-09-26T08:41:32.776Z,13.83
2022-09-26T08:44:26.306Z,13.87
2022-09-26T08:47:02.618Z,14.10
2022-09-26T08:49:41.856Z,15.46
2022-09-26T08:52:31.472Z,17.05
2022-09-26T08:55:01.633Z,18.09
2022-09-26T08:57:38.151Z,18.08
2022-09-26T09:00:28.301Z,18.72
2022-09-26T09:03:33.329Z,19.14
2022-09-26T09:06:14.701Z,20.37
2022-09-26T09:08:45.810Z,20.18
2022-09-26T09:11:51.223Z,18.99
2022-09-26T09:14:40.281Z,19.47
2022-09-26T09:17:36.908Z,19.38
2022-09-26T09:20:10.405Z,19.41
2022-09-26T09:22:55.434Z,19.95
2022-09-26T09:25:29.712Z,21.14
2022-09-26T09:28:18.254Z,20.17
2022-09-26T09:30:58.218Z,19.16
2022-09-26T09:33:41.272Z,17.98
2022-09-26T09:36:29.024Z,17.48
2022-09-26T09:39:04.442Z,17.56
2022-09-26T09:41:38.701Z,17.34
2022-09-26T09:44:27.744Z,17.16
2022-09-26T09:46:54.295Z,17.31
2022-09-26T09:49:23.788Z,17.16
2022-09-26T09:52:09.570Z,18.07
2022-09-26T09:54:53.020Z,19.37
2022-09-26T09:57:42.193Z,20.03
2022-09-26T10:00:11.873Z,20.94
2022-09-26T10:02:53.474Z,21.49
2022-09-26T10:05:33.668Z,20.68
2022-09-26T10:08:02.206Z,21.60
2022-09-26T10:10:46.131Z,21.74
2022-09-26T10:13:12.902Z,22.45
2022-09-26T10:15:44.822Z,22.85
2022-09-26T10:18:25.269Z,21.97
2022-09-26T10:21:16.297Z,21.52
2022-09-26T10:23:47.105Z,20.73
2022-09-26T10:26:13.944Z,19.94
2022-09-26T10:28:47.822Z,19.74
2022-09-26T10:31:31.403Z,19.66
2022-09-26T10:34:04.222Z,20.15
2022-09-26T10:36:40.611Z,20.28
2022-09-26T10:39:42.748Z,20.65
2022-09-26T10:42:31.425Z,21.11
2022-09-26T10:45:12.186Z,21.38
2022-09-26T10:47:38.824Z,21.50
2022-09-26T10:50:16.601Z,21.53
2022-09-26T10:53:09.280Z,20.90
2022-09-26T10:55:52.044Z,20.34
2022-09-26T10:58:29.538Z,19.68
2022-09-26T11:01:00.151Z,18.98
2022-09-26T11:03:42.469Z,18.43
2022-09-26T11:06:24.570Z,17.66
2022-09-26T11:08:59.435Z,17.16
2022-09-26T11:11:27.630Z,16.80
2022-09-26T11:14:09.291Z,16.70
2022-09-26T11:16:44.610Z,16.72
2022-09-26T11:19:14.157Z,16.68
2022-09-26T11:21:55.312Z,16.77
2022-09-26T11:24:53.032Z,16.95
2022-09-26T11:27:31.629Z,17.23
2022-09-26T11:30:21.753Z,17.29
2022-09-26T11:33:00.904Z,17.21
2022-09-26T11:35:35.739Z,16.92
2022-09-26T11:38:24.303Z,17.09
2022-09-26T11:41:19.170Z,17.09
2022-09-26T11:44:02.289Z,17.21
2022-09-26T11:46:36.842Z,17.07
2022-09-26T11:49:34.167Z,17.01
2022-09-26T11:52:29.992Z,17.08
2022-09-26T11:54:57.423Z,16.78
2022-09-26T11:57:41.907Z,16.67
2022-09-26T12:00:26.622Z,16.73
2022-09-26T12:03:01.599Z,16.77
2022-09-26T12:05:33.369Z,16.60
2022-09-26T12:08:19.393Z,16.85
2022-09-26T12:11:07.770Z,17.06
2022-09-26T12:14:09.442Z,17.18
2022-09-26T12:16:58.815Z,17.14
2022-09-26T12:19:44.365Z,16.87
2022-09-26T12:22:41.468Z,16.40
2022-09-26T12:25:34.389Z,16.40
2022-09-26T12:28:34.764Z,16.35
2022-09-26T12:31:08.955Z,16.24
2022-09-26T12:33:41.652Z,16.17
2022-09-26T12:36:31.149Z,16.36
2022-09-26T12:39:29.821Z,16.53
2022-09-26T12:42:17.445Z,16.52
2022-09-26T12:44:59.678Z,16.41
2022-09-26T12:47:53.682Z,16.49
2022-09-26T12:50:35.018Z,16.65
2022-09-26T12:53:26.463Z,16.61
2022-09-26T12:56:01.030Z,16.63
2022-09-26T12:59:07.443Z,16.79
2022-09-26T13:02:04.537Z,16.88
2022-09-26T13:04:47.802Z,17.12
2022-09-26T13:07:39.766Z,17.01
2022-09-26T13:10:33.570Z,17.13
2022-09-26T13:13:24.788Z,16.89
2022-09-26T13:16:06.532Z,17.11
2022-09-26T13:18:39.888Z,17.23
2022-09-26T13:21:15.769Z,17.16
2022-09-26T13:23:53.971Z,16.88
2022-09-26T13:26:31.198Z,16.94
2022-09-26T13:29:22.964Z,17.05
2022-09-26T13:32:12.546Z,16.98
2022-09-26T13:34:44.109Z,17.24
2022-09-26T13:37:37.789Z,17.13
2022-09-26T13:40:29.800Z,16.99
2022-09-26T13:43:24.194Z,17.01
2022-09-26T13:46:00.523Z,17.31
2022-09-26T13:48:55.096Z,17.51
2022-09-26T13:51:32.447Z,17.52
2022-09-26T13:54:29.773Z,17.28
2022-09-26T13:56:56.435Z,17.48
2022-09-26T13:59:34.502Z,17.49
2022-09-26T14:02:19.325Z,17.46
2022-09-26T14:04:52.075Z,17.49
2022-09-26T14:08:04.802Z,17.32
2022-09-26T14:10:38.591Z,16.90
2022-09-26T14:13:16.209Z,16.76
2022-09-26T14:16:01.348Z,16.68
2022-09-26T14:18:55.275Z,16.66
2022-09-26T14:22:02.521Z,16.75
2022-09-26T14:24:42.689Z,16.68
2022-09-26T14:27:11.872Z,16.71
2022-09-26T14:29:42.419Z,16.65
2022-09-26T14:32:10.367Z,16.64
2022-09-26T14:34:57.438Z,16.61
2022-09-26T14:37:26.371Z,16.42
2022-09-26T14:40:29.361Z,16.45
2022-09-26T14:43:13.426Z,16.42
2022-09-26T14:45:40.716Z,16.46
2022-09-26T14:48:26.261Z,16.58
2022-09-26T14:51:00.203Z,16.78
2022-09-26T14:53:42.713Z,16.86
2022-09-26T14:56:14.602Z,16.75
2022-09-26T14:58:51.964Z,16.59
2022-09-26T15:01:36.781Z,16.49
2022-09-26T15:04:27.371Z,16.39
2022-09-26T15:07:01.503Z,16.21
2022-09-26T15:10:00.468Z,16.03
2022-09-26T15:12:30.876Z,15.95
2022-09-26T15:15:12.630Z,15.93
2022-09-26T15:17:45.502Z,15.87
2022-09-26T15:20:18.768Z,15.84
2022-09-26T15:22:47.187Z,15.82
2022-09-26T15:25:26.424Z,15.75
2022-09-26T15:27:55.510Z,15.79
2022-09-26T15:30:24.531Z,15.76
2022-09-26T15:32:57.342Z,15.72
2022-09-26T15:35:26.662Z,15.71
2022-09-26T15:38:07.321Z,15.75
2022-09-26T15:40:33.894Z,15.68
2022-09-26T15:43:09.761Z,15.61
2022-09-26T15:45:59.443Z,15.54
2022-09-26T15:48:32.800Z,15.47
2022-09-26T15:51:24.474Z,15.43
2022-09-26T15:53:59.251Z,15.38
2022-09-26T15:56:33.962Z,15.33
2022-09-26T15:59:28.387Z,15.23
2022-09-26T16:01:55.620Z,15.12
2022-09-26T16:04:27.074Z,15.02
2022-09-26T16:07:07.573Z,14.95
2022-09-26T16:09:40.139Z,14.85
2022-09-26T16:12:15.904Z,14.77
2022-09-26T16:14:47.533Z,14.63
2022-09-26T16:17:25.139Z,14.59
2022-09-26T16:19:55.483Z,14.49
2022-09-26T16:22:36.863Z,14.43
2022-09-26T16:25:15.501Z,14.36
2022-09-26T16:27:42.339Z,14.28
2022-09-26T16:30:23.851Z,14.24
2022-09-26T16:32:52.968Z,14.17
2022-09-26T16:35:27.286Z,14.13
2022-09-26T16:38:03.771Z,14.09
2022-09-26T16:40:32.835Z,14.03
2022-09-26T16:43:14.446Z,13.92
2022-09-26T16:45:54.234Z,13.83
2022-09-26T16:48:37.638Z,13.76
2022-09-26T16:51:21.300Z,13.68
2022-09-26T16:54:18.259Z,13.63
2022-09-26T16:56:47.131Z,13.59
2022-09-26T16:59:26.330Z,13.55
2022-09-26T17:01:56.291Z,13.50
2022-09-26T17:04:32.695Z,13.45
2022-09-26T17:07:07.396Z,13.42
2022-09-26T17:09:38.056Z,13.38
2022-09-26T17:12:22.665Z,13.34
2022-09-26T17:14:57.037Z,13.27
2022-09-26T17:17:27.563Z,13.24
2022-09-26T17:19:59.526Z,13.22
2022-09-26T17:22:28.731Z,13.20
2022-09-26T17:24:55.488Z,13.15
2022-09-26T17:27:26.443Z,13.10
2022-09-26T17:29:59.766Z,13.00
2022-09-26T17:32:39.493Z,12.95
2022-09-26T17:35:17.233Z,12.92
2022-09-26T17:37:43.755Z,12.90
2022-09-26T17:40:21.063Z,12.84
2022-09-26T17:42:51.488Z,12.82
2022-09-26T17:45:20.266Z,12.82
2022-09-26T17:47:47.073Z,12.78
2022-09-26T17:50:23.240Z,12.70
2022-09-26T17:52:49.993Z,12.61
2022-09-26T17:55:18.795Z,12.56
2022-09-26T17:57:45.281Z,12.49
2022-09-26T18:00:19.601Z,12.46
2022-09-26T18:02:55.334Z,12.40
2022-09-26T18:05:23.315Z,12.35
2022-09-26T18:07:56.537Z,12.25
2022-09-26T18:10:30.163Z,12.15
2022-09-26T18:13:13.562Z,12.09
2022-09-26T18:15:41.580Z,12.02
2022-09-26T18:18:19.129Z,11.95
2022-09-26T18:20:49.056Z,11.90
2022-09-26T18:23:41.708Z,11.84
2022-09-26T18:26:15.463Z,11.80
2022-09-26T18:28:42.090Z,11.77
2022-09-26T18:31:11.283Z,11.75
2022-09-26T18:33:49.467Z,11.73
2022-09-26T18:36:20.441Z,11.72
2022-09-26T18:38:47.003Z,11.72
2022-09-26T18:41:15.928Z,11.67
2022-09-26T18:43:42.918Z,11.66
2022-09-26T18:46:16.190Z,11.64
2022-09-26T18:48:43.513Z,11.64
2022-09-26T18:51:16.284Z,11.65
2022-09-26T18:53:43.572Z,11.65
2022-09-26T18:56:30.172Z,11.63
2022-09-26T18:58:57.561Z,11.59
2022-09-26T19:01:30.288Z,11.60
2022-09-26T19:04:10.472Z,11.60
2022-09-26T19:06:40.717Z,11.62
2022-09-26T19:09:20.220Z,11.61
2022-09-26T19:11:47.902Z,11.57
2022-09-26T19:14:17.549Z,11.54
2022-09-26T19:16:45.943Z,11.49
2022-09-26T19:19:13.264Z,11.41
2022-09-26T19:21:48.707Z,11.31
2022-09-26T19:24:21.516Z,11.19
2022-09-26T19:27:16.973Z,11.12
2022-09-26T19:29:47.497Z,11.02
2022-09-26T19:32:21.436Z,11.00
2022-09-26T19:34:54.211Z,10.93
2022-09-26T19:37:20.792Z,10.87
2022-09-26T19:39:47.517Z,10.83
2022-09-26T19:42:14.445Z,10.76
2022-09-26T19:44:41.910Z,10.72
2022-09-26T19:47:19.934Z,10.69
2022-09-26T19:49:50.593Z,10.62
2022-09-26T19:52:19.871Z,10.59
2022-09-26T19:54:47.209Z,10.56
2022-09-26T19:57:19.575Z,10.53
2022-09-26T19:59:48.618Z,10.51
2022-09-26T20:02:20.879Z,10.48
2022-09-26T20:04:48.246Z,10.45
2022-09-26T20:07:25.362Z,10.42
2022-09-26T20:09:52.491Z,10.39
2022-09-26T20:12:19.024Z,10.34
2022-09-26T20:14:56.604Z,10.31
2022-09-26T20:19:59.334Z,10.28
2022-09-26T20:22:26.176Z,10.26
2022-09-26T20:24:57.068Z,10.26
2022-09-26T20:27:28.141Z,10.26
2022-09-26T20:30:13.970Z,10.24
2022-09-26T20:32:45.712Z,10.24
2022-09-26T20:35:15.418Z,10.23
2022-09-26T20:37:42.520Z,10.22
2022-09-26T20:40:18.357Z,10.21
2022-09-26T20:42:48.695Z,10.21
2022-09-26T20:45:18.093Z,10.21
2022-09-26T20:47:45.074Z,10.21
2022-09-26T20:50:20.446Z,10.18
2022-09-26T20:52:48.770Z,10.21
2022-09-26T20:55:18.124Z,10.13
2022-09-26T20:57:45.543Z,10.13
2022-09-26T21:00:16.564Z,10.14
2022-09-26T21:02:45.700Z,10.11
2022-09-26T21:05:24.651Z,10.07
2022-09-26T21:07:52.619Z,10.06
2022-09-26T21:10:32.930Z,10.05
2022-09-26T21:13:00.798Z,10.01
2022-09-26T21:15:30.684Z,9.99
2022-09-26T21:17:59.703Z,9.96
2022-09-26T21:20:32.874Z,9.97
2022-09-26T21:23:03.673Z,9.93
2022-09-26T21:25:33.932Z,9.93
2022-09-26T21:28:06.194Z,9.87
2022-09-26T21:30:33.791Z,9.85
2022-09-26T21:33:00.766Z,9.83
2022-09-26T21:35:36.660Z,9.81
2022-09-26T21:38:03.274Z,9.76
2022-09-26T21:40:34.983Z,9.74
2022-09-26T21:43:14.999Z,9.68
2022-09-26T21:45:44.362Z,9.68
2022-09-26T21:48:12.835Z,9.63
2022-09-26T21:50:43.680Z,9.61
2022-09-26T21:53:14.274Z,9.58
2022-09-26T21:55:47.229Z,9.57
2022-09-26T21:58:21.050Z,9.54
2022-09-26T22:00:52.762Z,9.51
2022-09-26T22:03:19.571Z,9.52
2022-09-26T22:05:47.815Z,9.50
2022-09-26T22:08:14.690Z,9.47
2022-09-26T22:10:41.315Z,9.46
2022-09-26T22:13:07.905Z,9.43
2022-09-26T22:15:34.609Z,9.44
2022-09-26T22:18:01.764Z,9.45
2022-09-26T22:20:28.308Z,9.44
2022-09-26T22:22:57.303Z,9.45
2022-09-26T22:25:23.994Z,9.44
2022-09-26T22:27:51.156Z,9.44
2022-09-26T22:30:19.637Z,9.45
2022-09-26T22:32:46.195Z,9.47
2022-09-26T22:35:12.751Z,9.48
2022-09-26T22:37:39.576Z,9.46
2022-09-26T22:40:08.713Z,9.44
2022-09-26T22:42:35.276Z,9.43
2022-09-26T22:45:02.139Z,9.44
2022-09-26T22:47:28.641Z,9.41
2022-09-26T22:49:55.166Z,9.39
2022-09-26T22:52:30.341Z,9.39
2022-09-26T22:54:56.884Z,9.38
2022-09-26T22:57:23.362Z,9.35
2022-09-26T22:59:50.040Z,9.34
2022-09-26T23:02:16.629Z,9.33
2022-09-26T23:04:49.122Z,9.34
2022-09-26T23:07:22.915Z,9.33
2022-09-26T23:09:49.561Z,9.33
2022-09-26T23:12:16.171Z,9.35
2022-09-26T23:14:43.055Z,9.34
2022-09-26T23:17:09.730Z,9.31
2022-09-26T23:19:37.061Z,9.31
2022-09-26T23:22:06.404Z,9.30
2022-09-26T23:24:33.015Z,9.29
2022-09-26T23:27:00.006Z,9.28
2022-09-26T23:29:31.281Z,9.28
2022-09-26T23:31:58.571Z,9.28
2022-09-26T23:34:25.205Z,9.28
2022-09-26T23:36:51.955Z,9.26
2022-09-26T23:39:18.793Z,9.27
2022-09-26T23:41:45.397Z,9.28
2022-09-26T23:44:13.613Z,9.30
2022-09-26T23:46:40.459Z,9.32
2022-09-26T23:49:06.995Z,9.32
2022-09-26T23:51:33.761Z,9.33
2022-09-26T23:54:00.286Z,9.38
2022-09-26T23:56:27.035Z,9.41
2022-09-26T23:58:57.778Z,9.43
